Time;durP1;ratioP1;P1;durP2;ratioP2;P2;SDS_P1;SDS_P2;PMS_P1;PMS_P2;Temp;Humidity;BMP_temperature;BMP_pressure;BME280_temperature;BME280_humidity;BME280_pressure;Samples;Min_cycle;Max_cycle;Signal;HPM_P1;HPM_P2
2022/07/14 00:01:59;;;;;;;1.95;0.80;;;26.30;45.50;;;;;;5013147;28;20045;-54
2022/07/14 00:04:25;;;;;;;2.38;0.80;;;26.30;45.50;;;;;;5010202;28;20029;-52
2022/07/14 00:06:50;;;;;;;1.70;0.77;;;26.30;45.50;;;;;;5012586;28;20164;-57
2022/07/14 00:09:16;;;;;;;2.17;0.90;;;26.20;45.50;;;;;;5011349;28;20033;-54
2022/07/14 00:11:42;;;;;;;3.22;1.00;;;26.20;45.50;;;;;;5013154;28;20365;-54
2022/07/14 00:14:07;;;;;;;2.70;0.77;;;26.20;45.40;;;;;;5011949;28;20260;-50
2022/07/14 00:16:33;;;;;;;2.10;0.93;;;26.20;45.40;;;;;;5012938;28;20030;-54
2022/07/14 00:18:59;;;;;;;3.25;0.63;;;26.20;45.40;;;;;;5011156;28;20026;-54
2022/07/14 00:21:25;;;;;;;3.55;0.90;;;26.20;45.40;;;;;;5013290;28;20059;-55
2022/07/14 00:23:50;;;;;;;2.78;1.00;;;26.20;45.40;;;;;;5011453;28;20034;-54
2022/07/14 00:26:16;;;;;;;2.70;0.80;;;26.20;45.40;;;;;;5012044;28;20026;-54
2022/07/14 00:28:42;;;;;;;3.10;1.02;;;26.20;45.40;;;;;;5011787;28;20046;-52
2022/07/14 00:31:10;;;;;;;2.30;0.75;;;26.20;45.40;;;;;;5012500;28;20429;-55
2022/07/14 00:33:38;;;;;;;2.22;0.77;;;26.20;45.40;;;;;;5013135;28;20018;-54
2022/07/14 00:36:04;;;;;;;3.35;1.20;;;26.20;45.40;;;;;;5012882;28;20046;-53
2022/07/14 00:38:30;;;;;;;1.55;0.90;;;26.20;45.40;;;;;;5008273;28;20029;-57
2022/07/14 00:40:57;;;;;;;2.05;0.90;;;26.20;45.40;;;;;;5013089;28;20336;-51
2022/07/14 00:43:23;;;;;;;3.28;1.38;;;26.20;45.40;;;;;;5011486;28;20026;-51
2022/07/14 00:45:49;;;;;;;2.38;1.00;;;26.10;45.30;;;;;;5012755;28;20033;-51
2022/07/14 00:48:17;;;;;;;2.63;1.05;;;26.20;45.40;;;;;;5011224;28;20038;-53
2022/07/14 00:50:44;;;;;;;2.50;1.10;;;26.10;45.30;;;;;;5012540;28;20038;-51
2022/07/14 00:53:11;;;;;;;3.53;1.30;;;26.20;45.40;;;;;;5011098;28;20030;-55
2022/07/14 00:55:41;;;;;;;4.05;1.30;;;26.10;45.30;;;;;;5010957;28;20064;-54
2022/07/14 00:58:07;;;;;;;2.33;1.00;;;26.10;45.30;;;;;;5012555;28;20030;-51
2022/07/14 01:00:33;;;;;;;2.00;0.98;;;26.10;45.30;;;;;;5014275;28;20033;-53
2022/07/14 01:03:00;;;;;;;2.35;1.23;;;26.10;45.30;;;;;;5015532;28;20453;-53
2022/07/14 01:05:26;;;;;;;2.80;1.20;;;26.10;45.30;;;;;;5015763;28;20025;-53
2022/07/14 01:07:52;;;;;;;2.92;0.93;;;26.10;45.20;;;;;;5014157;28;20468;-53
2022/07/14 01:10:19;;;;;;;2.17;1.02;;;26.00;45.10;;;;;;5016115;28;20049;-55
2022/07/14 01:12:46;;;;;;;1.20;0.90;;;26.10;45.20;;;;;;5016237;28;20441;-52
2022/07/14 01:15:14;;;;;;;1.92;0.88;;;26.10;45.20;;;;;;5014690;28;20042;-55
2022/07/14 01:17:40;;;;;;;2.20;0.93;;;26.00;45.10;;;;;;5013774;28;20026;-56
2022/07/14 01:20:08;;;;;;;3.72;1.20;;;26.00;45.10;;;;;;5016266;28;20018;-54
2022/07/14 01:22:34;;;;;;;3.25;1.20;;;26.00;45.10;;;;;;5016704;28;20026;-58
2022/07/14 01:25:00;;;;;;;2.17;0.90;;;26.00;45.10;;;;;;5016292;28;20040;-55
2022/07/14 01:27:27;;;;;;;2.58;0.80;;;26.00;45.00;;;;;;5014818;28;20029;-53
2022/07/14 01:29:53;;;;;;;1.75;0.75;;;26.00;45.00;;;;;;5014114;28;20419;-56
2022/07/14 01:32:20;;;;;;;2.40;0.80;;;26.00;45.00;;;;;;5015166;28;20030;-53
2022/07/14 01:34:47;;;;;;;2.38;0.80;;;26.00;45.00;;;;;;5015024;28;20456;-55
2022/07/14 01:37:13;;;;;;;1.73;0.85;;;26.00;45.00;;;;;;5013012;28;20437;-51
2022/07/14 01:39:38;;;;;;;2.40;0.80;;;25.90;44.90;;;;;;5013324;28;20083;-53
2022/07/14 01:42:05;;;;;;;1.38;0.80;;;26.00;45.00;;;;;;5014853;28;20461;-54
2022/07/14 01:44:31;;;;;;;2.05;0.80;;;26.00;45.00;;;;;;5014344;28;20018;-54
2022/07/14 01:46:57;;;;;;;1.95;0.52;;;26.00;44.90;;;;;;5014622;28;20026;-55
2022/07/14 01:49:22;;;;;;;3.28;0.80;;;25.90;44.90;;;;;;5014426;28;20046;-51
2022/07/14 01:51:48;;;;;;;2.17;0.75;;;25.90;44.80;;;;;;5013524;28;20026;-53
2022/07/14 01:54:17;;;;;;;2.20;1.00;;;25.90;44.80;;;;;;5011887;28;20033;-53
2022/07/14 01:56:43;;;;;;;1.40;0.85;;;25.90;44.80;;;;;;5014425;28;20109;-53
2022/07/14 01:59:13;;;;;;;3.30;0.93;;;25.90;44.80;;;;;;5014435;28;20018;-52
2022/07/14 02:01:39;;;;;;;2.60;1.10;;;25.90;44.70;;;;;;5011778;28;20037;-51
2022/07/14 02:04:05;;;;;;;2.60;0.70;;;25.90;44.80;;;;;;5013433;28;20026;-54
2022/07/14 02:06:31;;;;;;;2.97;1.13;;;25.90;44.70;;;;;;5013466;28;20452;-49
2022/07/14 02:08:58;;;;;;;2.38;0.82;;;25.90;44.70;;;;;;5014187;28;20034;-49
2022/07/14 02:14:09;;;;;;;2.45;0.82;;;25.80;44.60;;;;;;5012590;28;20453;-55
2022/07/14 02:16:35;;;;;;;2.80;0.90;;;25.80;44.60;;;;;;5014136;28;20076;-51
2022/07/14 02:19:01;;;;;;;1.85;0.70;;;25.80;44.60;;;;;;5014198;28;20033;-51
2022/07/14 02:21:28;;;;;;;1.48;0.70;;;25.80;44.60;;;;;;5013372;28;20026;-53
2022/07/14 02:23:55;;;;;;;2.95;0.70;;;25.80;44.50;;;;;;5014249;28;20368;-51
2022/07/14 02:26:22;;;;;;;3.17;0.70;;;25.80;44.50;;;;;;5014114;28;20041;-53
2022/07/14 02:28:49;;;;;;;1.35;0.73;;;25.80;44.50;;;;;;5013055;28;20471;-55
2022/07/14 02:31:15;;;;;;;2.22;0.70;;;25.80;44.50;;;;;;5012435;28;20030;-51
2022/07/14 02:33:41;;;;;;;2.40;0.88;;;25.80;44.50;;;;;;5012337;28;20026;-54
2022/07/14 02:36:08;;;;;;;2.38;0.95;;;25.80;44.50;;;;;;5013666;28;20021;-56
2022/07/14 02:38:36;;;;;;;1.88;0.77;;;25.70;44.40;;;;;;5028408;28;20181;-55
2022/07/14 02:41:04;;;;;;;2.65;0.95;;;25.70;44.40;;;;;;5013167;28;20022;-54
2022/07/14 02:43:31;;;;;;;3.47;0.75;;;25.70;44.40;;;;;;5030003;28;20041;-54
2022/07/14 02:45:59;;;;;;;2.47;0.75;;;25.70;44.40;;;;;;5012277;28;20353;-53
2022/07/14 02:48:25;;;;;;;1.75;0.70;;;25.70;44.40;;;;;;5013415;28;20198;-55
2022/07/14 02:50:57;;;;;;;2.20;0.73;;;25.70;44.40;;;;;;5012354;28;20110;-52
2022/07/14 02:53:23;;;;;;;2.90;0.70;;;25.70;44.50;;;;;;5012375;28;20034;-52
2022/07/14 02:55:49;;;;;;;2.30;0.68;;;25.70;44.40;;;;;;5013680;28;20048;-50
2022/07/14 02:58:14;;;;;;;1.98;0.75;;;25.60;44.40;;;;;;5010346;28;20037;-51
2022/07/14 03:00:41;;;;;;;2.05;0.77;;;25.60;44.30;;;;;;5012966;28;20040;-56
2022/07/14 03:03:09;;;;;;;3.15;0.95;;;25.60;44.40;;;;;;5013231;28;20471;-54
2022/07/14 03:05:36;;;;;;;2.55;0.93;;;25.60;44.40;;;;;;5013880;28;20373;-54
2022/07/14 03:08:02;;;;;;;1.42;0.65;;;25.60;45.00;;;;;;5012631;28;20045;-52
2022/07/14 03:10:28;;;;;;;1.42;0.70;;;25.60;44.40;;;;;;5012863;28;20042;-51
2022/07/14 03:12:54;;;;;;;1.95;0.85;;;25.60;44.30;;;;;;5013937;28;20044;-52
2022/07/14 03:15:20;;;;;;;2.30;0.70;;;25.60;44.30;;;;;;5010282;28;20386;-55
2022/07/14 03:17:46;;;;;;;2.72;0.70;;;25.60;44.30;;;;;;5014201;28;20022;-50
2022/07/14 03:20:12;;;;;;;2.75;1.10;;;25.60;44.30;;;;;;5011458;28;20017;-55
2022/07/14 03:22:39;;;;;;;2.78;0.80;;;25.60;44.30;;;;;;5011960;28;20358;-56
2022/07/14 03:25:13;;;;;;;3.33;0.98;;;25.50;44.30;;;;;;5011211;28;20037;-52
2022/07/14 03:27:40;;;;;;;3.10;0.98;;;25.50;44.30;;;;;;5011304;28;20353;-54
2022/07/14 03:30:07;;;;;;;2.72;0.80;;;25.50;44.20;;;;;;5011709;28;20038;-53
2022/07/14 03:32:34;;;;;;;1.70;0.80;;;25.50;44.20;;;;;;5012249;28;20441;-52
2022/07/14 03:35:06;;;;;;;2.28;0.68;;;25.50;44.20;;;;;;5012660;28;20104;-54
2022/07/14 03:37:32;;;;;;;1.23;0.60;;;25.50;44.20;;;;;;5012643;28;20026;-56
2022/07/14 03:40:04;;;;;;;1.63;0.70;;;25.50;44.20;;;;;;5012581;28;20112;-55
2022/07/14 03:42:30;;;;;;;3.17;1.17;;;25.50;44.20;;;;;;5008800;28;20361;-51
2022/07/14 03:44:57;;;;;;;4.00;1.17;;;25.50;44.20;;;;;;5010070;28;20026;-53
2022/07/14 03:47:23;;;;;;;1.85;0.60;;;25.50;44.20;;;;;;5012175;28;20018;-48
2022/07/14 03:49:49;;;;;;;1.27;0.68;;;25.40;44.10;;;;;;5009528;28;20038;-49
2022/07/14 03:52:16;;;;;;;1.98;0.73;;;25.40;44.10;;;;;;5011889;28;20044;-54
2022/07/14 03:54:46;;;;;;;2.95;0.70;;;25.40;44.10;;;;;;5011845;28;20349;-50
2022/07/14 03:57:13;;;;;;;2.47;0.77;;;25.40;44.10;;;;;;5012419;28;20357;-46
2022/07/14 03:59:41;;;;;;;2.35;0.90;;;25.40;44.10;;;;;;5010729;28;20065;-53
2022/07/14 04:02:10;;;;;;;1.75;0.73;;;25.40;44.10;;;;;;5008795;28;20056;-53
2022/07/14 04:04:37;;;;;;;2.03;0.95;;;25.40;44.10;;;;;;5012471;28;20030;-55
2022/07/14 04:07:04;;;;;;;2.25;0.77;;;25.40;44.00;;;;;;5010067;28;20030;-50
2022/07/14 04:09:31;;;;;;;2.25;0.90;;;25.40;44.00;;;;;;4995536;28;20129;-53
2022/07/14 04:11:58;;;;;;;1.42;0.65;;;25.40;44.00;;;;;;5012452;28;20041;-50
2022/07/14 04:14:24;;;;;;;2.28;0.90;;;25.40;44.00;;;;;;5007926;28;20030;-53
2022/07/14 04:16:51;;;;;;;1.52;0.60;;;25.40;44.00;;;;;;5012189;28;20399;-50
2022/07/14 04:19:19;;;;;;;2.33;0.70;;;25.40;44.00;;;;;;5008922;28;20441;-54
2022/07/14 04:21:45;;;;;;;5.55;1.23;;;25.40;44.00;;;;;;5011558;28;20030;-54
2022/07/14 04:24:11;;;;;;;2.00;0.75;;;25.40;44.00;;;;;;5011267;28;20117;-51
2022/07/14 04:26:40;;;;;;;2.22;0.77;;;25.40;43.90;;;;;;5011632;28;20022;-52
2022/07/14 04:29:07;;;;;;;2.80;0.95;;;25.40;43.90;;;;;;5010928;28;20449;-52
2022/07/14 04:31:34;;;;;;;2.53;0.65;;;25.40;43.90;;;;;;5011311;28;20118;-51
2022/07/14 04:34:01;;;;;;;2.15;0.65;;;25.40;43.90;;;;;;5014868;28;20049;-51
2022/07/14 04:36:27;;;;;;;1.65;0.70;;;25.40;43.90;;;;;;5012077;28;20030;-50
2022/07/14 04:38:56;;;;;;;2.25;0.60;;;25.40;43.90;;;;;;5012957;28;20456;-50
2022/07/14 04:41:23;;;;;;;1.80;1.00;;;25.40;43.90;;;;;;5016791;28;20033;-54
2022/07/14 04:43:48;;;;;;;1.70;0.55;;;25.40;43.90;;;;;;5014893;28;20092;-53
2022/07/14 04:46:14;;;;;;;1.63;0.65;;;25.30;43.80;;;;;;5012448;28;20033;-55
2022/07/14 04:54:17;;;;;;;2.33;0.80;;;25.30;43.80;;;;;;5015286;28;20129;-53
2022/07/14 04:57:15;;;;;;;2.22;0.68;;;25.30;43.80;;;;;;5003319;28;20034;-54
2022/07/14 04:59:44;;;;;;;1.85;0.75;;;25.30;43.80;;;;;;5013683;28;20030;-53
2022/07/14 05:02:12;;;;;;;1.85;0.88;;;25.30;43.80;;;;;;5030894;28;20029;-54
2022/07/14 05:04:38;;;;;;;3.83;0.80;;;25.30;43.80;;;;;;5015696;28;20030;-53
2022/07/14 05:07:06;;;;;;;2.00;0.60;;;25.30;43.80;;;;;;5015058;28;20018;-53
2022/07/14 05:09:33;;;;;;;1.88;0.93;;;25.30;43.80;;;;;;5014983;28;20046;-56
2022/07/14 05:12:01;;;;;;;2.35;1.13;;;25.30;43.80;;;;;;5014460;28;20361;-49
2022/07/14 05:14:31;;;;;;;3.42;1.13;;;25.30;43.80;;;;;;5014539;28;20029;-55
2022/07/14 05:17:00;;;;;;;1.70;0.70;;;25.30;43.80;;;;;;5010110;28;20458;-52
2022/07/14 05:19:27;;;;;;;1.92;0.70;;;25.30;43.80;;;;;;5015066;28;20036;-57
2022/07/14 05:21:53;;;;;;;2.55;0.75;;;25.30;43.80;;;;;;5015125;28;20025;-52
2022/07/14 05:24:20;;;;;;;1.85;0.60;;;25.30;43.80;;;;;;5014737;28;20040;-52
2022/07/14 05:26:46;;;;;;;2.13;0.90;;;25.30;43.80;;;;;;5013556;28;20025;-53
2022/07/14 05:29:12;;;;;;;2.42;0.90;;;25.30;43.80;;;;;;5009279;28;20104;-56
2022/07/14 05:31:41;;;;;;;1.90;0.77;;;25.30;43.80;;;;;;5014572;28;20034;-52
2022/07/14 05:34:08;;;;;;;1.38;0.55;;;25.30;43.80;;;;;;5014590;28;20453;-51
2022/07/14 05:36:35;;;;;;;3.63;0.82;;;25.30;43.80;;;;;;5016054;28;20048;-55
2022/07/14 05:39:05;;;;;;;3.13;0.80;;;25.30;43.80;;;;;;5014523;28;20030;-56
2022/07/14 05:41:31;;;;;;;1.75;0.80;;;25.30;43.80;;;;;;5014261;28;20033;-55
2022/07/14 05:43:58;;;;;;;2.17;0.80;;;25.30;43.80;;;;;;5012204;28;20021;-51
2022/07/14 05:46:24;;;;;;;4.07;0.77;;;25.30;43.80;;;;;;5013678;28;20060;-56
2022/07/14 05:48:49;;;;;;;2.55;0.70;;;25.30;43.90;;;;;;5014172;28;20085;-52
2022/07/14 05:51:17;;;;;;;3.33;1.15;;;25.30;43.80;;;;;;5015126;28;20054;-52
2022/07/14 05:53:47;;;;;;;1.45;0.55;;;25.30;43.80;;;;;;5013687;28;20087;-49
2022/07/14 05:56:18;;;;;;;1.58;0.60;;;25.30;43.90;;;;;;5012921;28;20377;-54
2022/07/14 05:58:46;;;;;;;3.47;0.93;;;25.30;43.80;;;;;;5011463;28;20449;-56
2022/07/14 06:01:12;;;;;;;2.38;0.82;;;25.30;43.90;;;;;;5014404;28;20030;-53
2022/07/14 06:03:39;;;;;;;2.83;0.80;;;25.30;43.80;;;;;;5013457;28;20026;-51
2022/07/14 06:06:07;;;;;;;4.50;1.05;;;25.30;43.80;;;;;;5013463;28;20034;-51
2022/07/14 06:08:33;;;;;;;2.20;0.73;;;25.30;43.80;;;;;;5012508;28;20064;-54
2022/07/14 06:10:59;;;;;;;2.28;0.82;;;25.30;43.80;;;;;;5011452;28;20014;-54
2022/07/14 06:13:28;;;;;;;2.17;0.73;;;25.30;43.80;;;;;;5012511;28;20045;-55
2022/07/14 06:15:55;;;;;;;1.85;0.82;;;25.30;43.80;;;;;;5010461;28;20433;-52
2022/07/14 06:18:22;;;;;;;2.78;1.25;;;25.30;43.80;;;;;;5014590;28;20034;-52
2022/07/14 06:20:48;;;;;;;2.22;0.77;;;25.30;43.80;;;;;;5014439;28;20042;-58
2022/07/14 06:23:15;;;;;;;2.63;0.82;;;25.30;43.80;;;;;;5013567;28;20030;-63
2022/07/14 06:25:43;;;;;;;2.72;1.08;;;25.30;43.80;;;;;;5012372;28;20040;-57
2022/07/14 06:28:11;;;;;;;1.95;0.93;;;25.30;43.80;;;;;;5012383;28;20058;-48
2022/07/14 06:30:38;;;;;;;2.47;0.93;;;25.30;43.80;;;;;;5012167;28;20095;-49
2022/07/14 06:33:04;;;;;;;2.28;0.73;;;25.30;43.80;;;;;;5009098;28;20079;-53
2022/07/14 06:35:30;;;;;;;3.67;0.80;;;25.30;43.80;;;;;;5011920;28;20401;-54
2022/07/14 06:37:57;;;;;;;5.13;0.80;;;25.30;43.80;;;;;;5013610;28;20025;-54
2022/07/14 06:40:23;;;;;;;2.88;1.08;;;25.30;43.80;;;;;;5015762;28;20310;-57
2022/07/14 06:42:50;;;;;;;2.00;0.90;;;25.30;43.70;;;;;;5013227;28;20045;-51
2022/07/14 06:45:24;;;;;;;3.13;1.17;;;25.30;43.70;;;;;;5012905;28;20021;-53
2022/07/14 06:47:53;;;;;;;3.92;0.90;;;25.30;43.70;;;;;;5015158;28;20054;-55
2022/07/14 06:50:19;;;;;;;1.70;0.60;;;25.30;43.70;;;;;;5014243;28;20346;-57
2022/07/14 06:52:45;;;;;;;1.23;0.60;;;25.30;43.70;;;;;;5015149;28;20455;-54
2022/07/14 06:55:11;;;;;;;2.05;0.90;;;25.30;43.70;;;;;;5015166;28;20121;-49
2022/07/14 06:57:37;;;;;;;1.55;0.63;;;25.40;43.80;;;;;;5009585;28;20437;-56
2022/07/14 07:00:07;;;;;;;2.83;0.75;;;25.40;43.70;;;;;;5003447;28;20072;-53
2022/07/14 07:02:36;;;;;;;1.50;0.60;;;25.40;43.70;;;;;;5005511;28;20053;-56
2022/07/14 07:07:51;;;;;;;2.35;0.75;;;25.40;43.80;;;;;;5006539;28;20034;-55
2022/07/14 07:10:18;;;;;;;2.58;0.70;;;25.40;43.80;;;;;;5011692;28;20033;-53
2022/07/14 07:12:43;;;;;;;2.83;0.73;;;25.40;43.80;;;;;;5015086;28;20045;-53
2022/07/14 07:15:09;;;;;;;2.55;0.70;;;25.40;43.80;;;;;;5003914;28;20030;-57
2022/07/14 07:17:35;;;;;;;2.25;0.55;;;25.40;43.80;;;;;;5005965;28;20030;-57
2022/07/14 07:20:01;;;;;;;1.48;0.52;;;25.50;43.80;;;;;;5004099;28;20357;-54
2022/07/14 07:22:27;;;;;;;1.27;0.60;;;25.50;43.80;;;;;;5006382;28;20026;-56
2022/07/14 07:24:53;;;;;;;1.73;0.63;;;25.50;43.70;;;;;;5004639;28;20109;-52
2022/07/14 07:27:18;;;;;;;1.83;0.60;;;25.50;43.70;;;;;;5004006;28;20018;-54
2022/07/14 07:29:46;;;;;;;1.48;0.80;;;25.50;43.60;;;;;;5004737;28;20449;-56
2022/07/14 07:32:12;;;;;;;0.60;0.38;;;25.50;43.60;;;;;;5001848;28;20034;-55
2022/07/14 07:34:38;;;;;;;1.73;0.60;;;25.50;43.50;;;;;;5003630;28;20041;-54
2022/07/14 07:37:05;;;;;;;1.65;0.63;;;25.60;43.50;;;;;;5008647;28;20034;-54
2022/07/14 07:39:33;;;;;;;1.05;0.50;;;25.60;43.40;;;;;;5011493;28;20028;-52
2022/07/14 07:42:01;;;;;;;2.30;0.80;;;25.60;43.40;;;;;;5009793;28;20410;-53
2022/07/14 07:44:29;;;;;;;1.38;0.50;;;25.60;43.30;;;;;;5010488;28;20105;-56
2022/07/14 07:46:56;;;;;;;1.55;0.50;;;25.70;43.30;;;;;;5013116;28;20049;-56
2022/07/14 07:49:22;;;;;;;1.60;0.47;;;25.70;43.30;;;;;;5012717;28;20064;-55
2022/07/14 07:51:48;;;;;;;1.67;0.40;;;25.70;43.20;;;;;;5005782;28;20112;-56
2022/07/14 07:54:14;;;;;;;1.58;0.50;;;25.70;43.10;;;;;;5008032;28;20450;-58
2022/07/14 07:56:40;;;;;;;1.15;0.68;;;25.80;43.20;;;;;;5006737;28;20091;-53
2022/07/14 07:59:05;;;;;;;1.63;0.60;;;25.70;43.10;;;;;;5007836;28;20030;-53
2022/07/14 08:01:31;;;;;;;1.48;0.70;;;25.80;43.10;;;;;;5010256;28;20057;-54
2022/07/14 08:03:57;;;;;;;0.95;0.40;;;25.80;43.10;;;;;;5004121;28;20030;-54
2022/07/14 08:06:23;;;;;;;1.05;0.50;;;25.80;43.10;;;;;;5003164;28;20401;-54
2022/07/14 08:08:49;;;;;;;2.50;0.85;;;25.80;43.00;;;;;;5011548;28;20029;-54
2022/07/14 08:11:14;;;;;;;1.10;0.30;;;25.80;43.00;;;;;;5009835;28;20495;-50
2022/07/14 08:13:40;;;;;;;1.50;0.70;;;25.80;43.00;;;;;;5010758;28;20036;-55
2022/07/14 08:16:07;;;;;;;1.33;0.50;;;25.80;43.00;;;;;;5010667;28;20030;-52
2022/07/14 08:18:33;;;;;;;1.33;0.50;;;25.80;42.90;;;;;;5008491;28;20025;-53
2022/07/14 08:20:58;;;;;;;1.38;0.60;;;25.90;42.90;;;;;;5008917;28;20388;-57
2022/07/14 08:23:27;;;;;;;1.00;0.28;;;25.90;42.90;;;;;;5011698;28;20386;-55
2022/07/14 08:25:53;;;;;;;1.23;0.43;;;25.90;42.80;;;;;;5009864;28;20030;-58
2022/07/14 08:28:19;;;;;;;1.85;0.57;;;25.90;42.80;;;;;;5006086;28;20037;-53
2022/07/14 08:30:45;;;;;;;1.80;0.50;;;25.90;42.80;;;;;;5002315;28;20776;-56
2022/07/14 08:33:11;;;;;;;1.98;0.70;;;25.90;42.80;;;;;;5004828;28;20033;-54
2022/07/14 08:35:37;;;;;;;2.15;0.70;;;26.00;42.80;;;;;;5004092;28;20084;-54
2022/07/14 08:38:03;;;;;;;0.55;0.35;;;25.90;42.70;;;;;;5003162;28;20512;-56
2022/07/14 08:40:29;;;;;;;1.38;0.52;;;25.90;42.70;;;;;;5008971;28;20037;-57
2022/07/14 08:42:56;;;;;;;0.75;0.38;;;26.00;42.70;;;;;;5010856;28;20038;-51
2022/07/14 08:45:24;;;;;;;0.93;0.40;;;26.00;42.70;;;;;;5005319;28;20030;-53
2022/07/14 08:47:51;;;;;;;1.52;0.50;;;26.00;42.90;;;;;;5005049;28;20049;-50
2022/07/14 08:50:19;;;;;;;1.42;0.60;;;26.00;42.70;;;;;;5004805;28;20038;-55
2022/07/14 08:52:46;;;;;;;1.88;0.55;;;26.00;42.70;;;;;;5005788;28;20046;-57
2022/07/14 08:55:13;;;;;;;1.20;0.40;;;26.00;42.60;;;;;;5003293;28;20109;-56
2022/07/14 08:57:40;;;;;;;1.65;0.55;;;26.00;42.60;;;;;;5001500;28;20087;-53
2022/07/14 09:00:11;;;;;;;1.08;0.40;;;26.00;42.50;;;;;;5004759;28;20037;-54
2022/07/14 09:02:47;;;;;;;0.88;0.40;;;26.00;42.50;;;;;;5007655;28;20033;-51
2022/07/14 09:05:14;;;;;;;1.88;0.50;;;26.00;42.50;;;;;;5000821;28;20034;-54
2022/07/14 09:07:41;;;;;;;0.95;0.30;;;26.10;42.50;;;;;;5004961;28;20033;-55
2022/07/14 09:10:10;;;;;;;0.98;0.52;;;26.00;42.40;;;;;;5004155;28;20042;-52
2022/07/14 09:12:37;;;;;;;1.33;0.60;;;26.00;42.30;;;;;;5001961;28;20109;-54
2022/07/14 09:17:53;;;;;;;1.27;0.50;;;26.10;42.40;;;;;;5002488;28;20053;-50
2022/07/14 09:20:20;;;;;;;0.77;0.50;;;26.10;42.30;;;;;;5007319;28;20039;-55
2022/07/14 09:22:46;;;;;;;1.10;0.47;;;26.10;42.30;;;;;;5007973;28;20399;-52
2022/07/14 09:25:17;;;;;;;1.92;0.52;;;26.10;42.20;;;;;;5006721;28;20041;-55
2022/07/14 09:27:45;;;;;;;1.17;0.50;;;26.10;42.20;;;;;;5008231;28;20044;-52
2022/07/14 09:30:13;;;;;;;0.73;0.47;;;26.10;42.20;;;;;;5005892;28;20034;-56
2022/07/14 09:32:47;;;;;;;2.80;0.40;;;26.10;42.30;;;;;;5006126;28;20041;-55
2022/07/14 09:35:20;;;;;;;0.60;0.32;;;26.20;42.30;;;;;;5005962;28;20042;-54
2022/07/14 09:37:46;;;;;;;1.23;0.50;;;26.20;42.30;;;;;;5005879;28;20034;-56
2022/07/14 09:40:20;;;;;;;2.10;0.68;;;26.20;42.30;;;;;;5005446;28;20168;-52
2022/07/14 09:42:56;;;;;;;1.10;0.45;;;26.20;43.00;;;;;;5004800;28;20083;-56
2022/07/14 09:45:36;;;;;;;1.95;0.55;;;26.20;42.30;;;;;;5010058;28;20124;-52
2022/07/14 09:48:09;;;;;;;2.97;0.63;;;26.30;42.40;;;;;;5007300;28;20042;-59
2022/07/14 09:50:41;;;;;;;1.60;0.40;;;26.30;42.50;;;;;;5003834;28;20380;-57
2022/07/14 09:53:28;;;;;;;1.45;0.55;;;26.30;42.40;;;;;;5005188;28;20038;-52
2022/07/14 09:55:53;;;;;;;0.98;0.30;;;26.30;42.30;;;;;;5006839;28;20114;-57
2022/07/14 09:58:21;;;;;;;1.77;0.60;;;26.30;42.50;;;;;;5008360;28;20113;-56
2022/07/14 10:01:08;;;;;;;0.95;0.30;;;26.30;42.40;;;;;;5007012;28;20032;-48
2022/07/14 10:03:36;;;;;;;2.15;0.50;;;26.40;42.50;;;;;;5006368;28;20050;-50
2022/07/14 10:06:04;;;;;;;0.50;0.32;;;26.40;42.50;;;;;;5003607;28;20021;-43
2022/07/14 10:08:33;;;;;;;0.50;0.30;;;26.40;42.50;;;;;;5007493;28;20133;-45
2022/07/14 10:11:00;;;;;;;1.13;0.50;;;26.40;42.40;;;;;;5007766;28;20050;-48
2022/07/14 10:13:26;;;;;;;2.08;0.47;;;26.40;42.40;;;;;;5004182;28;20442;-47
2022/07/14 10:15:54;;;;;;;2.35;0.50;;;26.40;42.40;;;;;;5004758;28;20025;-50
2022/07/14 10:18:21;;;;;;;2.83;0.68;;;26.50;42.40;;;;;;5007030;28;20034;-50
2022/07/14 10:20:50;;;;;;;0.65;0.40;;;26.50;42.30;;;;;;5005340;28;20410;-50
2022/07/14 10:23:18;;;;;;;1.38;0.52;;;26.50;42.30;;;;;;5003401;28;20083;-44
2022/07/14 10:25:48;;;;;;;0.57;0.30;;;26.50;42.30;;;;;;5004213;28;20096;-47
2022/07/14 10:28:18;;;;;;;1.42;0.40;;;26.50;42.10;;;;;;5005207;28;20349;-45
2022/07/14 10:31:22;;;;;;;0.30;0.20;;;26.50;42.10;;;;;;5007871;28;20037;-47
2022/07/14 10:33:52;;;;;;;0.93;0.30;;;26.50;42.00;;;;;;5007513;28;20037;-50
2022/07/14 10:36:42;;;;;;;4.15;0.40;;;26.50;42.00;;;;;;5005604;28;20034;-49
2022/07/14 10:39:35;;;;;;;0.50;0.20;;;26.50;41.90;;;;;;5003566;28;20121;-47
2022/07/14 10:42:30;;;;;;;0.90;0.30;;;26.50;41.80;;;;;;5009903;28;20287;-48
2022/07/14 10:44:56;;;;;;;1.02;0.40;;;26.60;41.70;;;;;;5012209;28;20037;-46
2022/07/14 10:47:25;;;;;;;0.47;0.40;;;26.60;41.70;;;;;;5012577;28;20037;-51
2022/07/14 10:50:01;;;;;;;0.80;0.30;;;26.60;41.60;;;;;;5008534;28;20077;-53
2022/07/14 10:52:29;;;;;;;0.93;0.40;;;26.60;41.50;;;;;;5014843;28;20168;-53
2022/07/14 10:55:13;;;;;;;1.23;0.30;;;26.60;41.50;;;;;;5005409;28;20034;-50
2022/07/14 10:58:04;;;;;;;0.80;0.30;;;26.70;41.40;;;;;;5013474;28;20041;-52
2022/07/14 11:00:42;;;;;;;0.70;0.28;;;26.70;41.50;;;;;;5007077;28;20380;-47
2022/07/14 11:03:22;;;;;;;1.23;0.40;;;26.70;41.30;;;;;;5001964;28;20034;-50
2022/07/14 11:06:11;;;;;;;1.10;0.40;;;26.80;41.30;;;;;;5002258;28;20081;-54
2022/07/14 11:09:18;;;;;;;0.90;0.40;;;26.80;41.20;;;;;;5006177;28;20026;-55
2022/07/14 11:12:10;;;;;;;0.52;0.22;;;26.80;41.10;;;;;;5005303;28;20037;-53
2022/07/14 11:14:41;;;;;;;1.10;0.38;;;26.80;41.10;;;;;;5005489;28;20621;-56
2022/07/14 11:17:08;;;;;;;0.50;0.30;;;26.90;41.10;;;;;;5006119;28;20018;-53
2022/07/14 11:19:38;;;;;;;0.75;0.30;;;26.90;41.10;;;;;;5008996;28;20041;-56
2022/07/14 11:22:17;;;;;;;1.35;0.40;;;26.90;41.10;;;;;;5006608;28;20062;-53
2022/07/14 11:24:53;;;;;;;1.88;0.20;;;26.90;40.90;;;;;;5014016;28;20026;-46
2022/07/14 11:27:39;;;;;;;1.00;0.20;;;26.90;40.90;;;;;;5007672;28;20026;-51
2022/07/14 11:30:38;;;;;;;1.23;0.20;;;26.90;41.40;;;;;;5002985;28;20081;-51
2022/07/14 11:33:09;;;;;;;0.50;0.20;;;27.00;40.80;;;;;;4956000;28;20364;-49
2022/07/14 11:38:37;;;;;;;1.15;0.40;;;27.00;40.80;;;;;;5003376;28;20037;-52
2022/07/14 11:41:08;;;;;;;0.80;0.30;;;27.00;40.80;;;;;;5004591;28;20025;-53
2022/07/14 11:43:35;;;;;;;0.80;0.30;;;27.00;40.70;;;;;;5009438;28;20080;-55
2022/07/14 11:46:24;;;;;;;0.98;0.30;;;27.00;40.70;;;;;;5013729;28;20022;-54
2022/07/14 11:48:53;;;;;;;1.10;0.30;;;27.00;40.50;;;;;;5009518;28;20414;-53
2022/07/14 11:51:31;;;;;;;0.55;0.30;;;27.00;40.60;;;;;;5010301;28;20030;-47
2022/07/14 11:54:04;;;;;;;0.80;0.30;;;27.00;40.40;;;;;;5009073;28;20112;-51
2022/07/14 11:56:31;;;;;;;0.60;0.30;;;27.00;40.40;;;;;;5011443;28;20116;-54
2022/07/14 11:59:03;;;;;;;1.00;0.40;;;27.10;40.40;;;;;;5009784;28;20034;-51
2022/07/14 12:01:38;;;;;;;0.88;0.47;;;27.00;40.30;;;;;;5009847;28;20104;-52
2022/07/14 12:04:05;;;;;;;0.65;0.20;;;27.10;40.30;;;;;;5009148;28;20373;-54
2022/07/14 12:06:32;;;;;;;1.40;0.25;;;27.00;40.20;;;;;;5008589;28;20395;-52
2022/07/14 12:08:58;;;;;;;0.50;0.20;;;27.00;40.20;;;;;;5011015;28;20092;-54
2022/07/14 12:11:26;;;;;;;0.57;0.30;;;27.00;40.10;;;;;;5009409;28;20033;-55
2022/07/14 12:14:15;;;;;;;0.75;0.32;;;27.10;40.10;;;;;;5010426;28;20535;-54
2022/07/14 12:16:42;;;;;;;0.95;0.40;;;27.00;40.00;;;;;;5010309;28;20042;-52
2022/07/14 12:19:09;;;;;;;1.67;0.22;;;27.10;40.00;;;;;;5007569;28;20108;-53
2022/07/14 12:21:37;;;;;;;0.65;0.30;;;27.10;40.00;;;;;;5006930;28;20026;-52
2022/07/14 12:24:06;;;;;;;0.88;0.40;;;27.10;39.90;;;;;;5002668;28;20092;-55
2022/07/14 12:26:34;;;;;;;0.52;0.20;;;27.10;39.80;;;;;;5002587;28;20031;-54
2022/07/14 12:29:02;;;;;;;0.60;0.30;;;27.10;39.80;;;;;;5004133;28;20030;-53
2022/07/14 12:31:29;;;;;;;1.02;0.40;;;27.10;39.70;;;;;;5005750;28;20053;-52
2022/07/14 12:34:00;;;;;;;0.95;0.28;;;27.10;39.70;;;;;;5003990;28;20034;-55
2022/07/14 12:36:30;;;;;;;1.10;0.30;;;27.10;39.70;;;;;;5002323;28;20034;-52
2022/07/14 12:38:58;;;;;;;1.15;0.40;;;27.10;39.70;;;;;;5002458;28;20151;-49
2022/07/14 12:41:28;;;;;;;0.30;0.20;;;27.10;39.70;;;;;;5005430;28;20362;-55
2022/07/14 12:44:04;;;;;;;0.68;0.30;;;27.10;39.70;;;;;;5011771;28;20034;-54
2022/07/14 12:46:30;;;;;;;0.52;0.20;;;27.10;39.70;;;;;;5012156;28;20105;-48
2022/07/14 12:49:05;;;;;;;0.63;0.28;;;27.10;39.70;;;;;;5011276;28;20412;-51
2022/07/14 12:51:34;;;;;;;0.63;0.20;;;27.10;39.60;;;;;;5005291;28;20361;-52
2022/07/14 12:54:30;;;;;;;0.50;0.20;;;27.10;39.50;;;;;;5012023;28;20358;-49
2022/07/14 12:56:56;;;;;;;1.02;0.30;;;27.10;39.40;;;;;;5015927;28;20109;-51
2022/07/14 12:59:30;;;;;;;0.47;0.20;;;27.10;39.50;;;;;;5012237;28;20030;-49
2022/07/14 13:02:04;;;;;;;0.68;0.28;;;27.10;39.40;;;;;;5017306;28;20029;-48
2022/07/14 13:04:36;;;;;;;;;;;27.10;39.40;;;;;;5017677;28;20821;-46
2022/07/14 13:07:25;;;;;;;1.60;0.10;;;27.10;39.50;;;;;;5015938;28;20336;-51
2022/07/14 13:10:14;;;;;;;0.90;0.40;;;27.10;39.40;;;;;;5013375;28;20048;-47
2022/07/14 13:12:54;;;;;;;0.38;0.20;;;27.10;39.40;;;;;;5006227;28;20034;-46
2022/07/14 13:15:26;;;;;;;0.63;0.20;;;27.10;39.30;;;;;;5015945;28;20025;-52